الصفحة الرئيسية
METAR-TAF:

METAR-TAF

مطار :

كوتايسي, جورجيا

دائرة عرض: 42-10-35N, خط طول: 042-28-57E, ارتفاع: 68 متر

مراقبة الطقس الحالي

تاريخ ووقت الإصدار 35 دقيقة قبل الساعة 03:30UTC
ريح 2 عقدةمن اتجاهات متغيرة
درجة الحرارة 23°درجة مئوية
الرطوبة 94%
ضغط 1007 hPa
الرؤية 10 كم أو أكثر
الغيوم لا تقل 1500 م ولا وجود لمزنة ركامية السحاب الأسود

METAR: UGKO 160330Z VRB02KT CAVOK 23/22 Q1007 NOSIG

زمن: 08:05 (04:05 UTC)

توقعات

تاريخ ووقت الإصدار 5ساعات و 5 دقيقة قبل الساعة 23:00UTC
التوقعات صالحة من16 الساعة 00 UTC إلى 16 الساعة 24 UTC
ريح 7 عقدة من الغرب/الجنوب الغربي
الرؤية 10 كم أو أكثر
الغيوم لا تقل 1500 م ولا وجود لمزنة ركامية السحاب الأسود
مؤقت
من 16 الساعة 00 UTC إلى 16 الساعة 06 UTC
غيوم متفرقة على ارتفاع 4000 قدم
مؤقت
من 16 الساعة 09 UTC إلى 16 الساعة 17 UTC
ريح 17 عقدة من الغرب
مؤقت
من 16 الساعة 19 UTC إلى 16 الساعة 24 UTC
غيوم مفككة على ارتفاع 3000 قدم

TAF: UGKO 152300Z 1600/1624 25007KT CAVOK TX33/1611Z TN22/1602Z TEMPO 1600/1606 SCT040 TEMPO 1609/1617 27017KT TEMPO 1619/1624 BKN030

أرصاد الطقس والتوقعات من أكثر من 4000 مطار (تقارير الطقس للمطار METAR والتنبؤ بالطقس بالمطارTAF).

المحطات المتاحة هي النقط الصفراء والحمراء على الخريطة.

حرك المؤشر فوق النقطة لمعرفة اسم المحطة.

ثم انقر لمعرفة أرصاد وتوقعات الطقس.

لتغيير الخارطة: اضغط على الأزرار الخضراء مع رمز الصليب الأسود للتكبير. على الزر الأخضر مع شرطة للتصغير، أو على الأسهم الخضراء للخرائط المجاورة.


METAR-TAF: